Voluntown, Connecticut
Current Conditions -  °F | °C
As of 7:53 PM on Saturday 20 Dec 2014 (Local Time) from KWST Reporting Station
Overcast Overcast  
Wind Chill: 29°   Ceiling: 4100
Heat Index: 34°   Visibility: 10mi
Dew Point: 27°   Wind: 6mph
Humidity: 75%   Direction: 350°N
Pressure: 30.27"   Gusts: NA
Location:  41.57°N, 71.87°W
Report Text: KWST 210053Z AUTO 35005KT 10SM OVC041 01/M03 A3027 RMK AO2 SLP250 T00111028
Loading
Personal Weather Stations






























Interactive Weather Map New forecast layout! Learn more

10-Day Weather Forecast

Advertisements
Track Severe Weather on mobile